Time;durP1;ratioP1;P1;durP2;ratioP2;P2;SDS_P1;SDS_P2;PMS_P1;PMS_P2;Temp;Humidity;BMP_temperature;BMP_pressure;BME280_temperature;BME280_humidity;BME280_pressure;Samples;Min_cycle;Max_cycle;Signal;HPM_P1;HPM_P2
2022/03/10 00:02:14;;;;;;;21.58;10.98;;;3.10;99.90;;;;;;5047353;28;20060;-68
2022/03/10 00:04:39;;;;;;;17.10;10.13;;;3.10;99.90;;;;;;5066159;28;20044;-67
2022/03/10 00:07:06;;;;;;;22.15;11.00;;;3.10;99.90;;;;;;5052721;28;20040;-68
2022/03/10 00:09:32;;;;;;;19.45;10.52;;;3.10;99.90;;;;;;5059517;28;20087;-67
2022/03/10 00:12:02;;;;;;;19.30;10.50;;;3.10;99.90;;;;;;5064765;28;20112;-67
2022/03/10 00:14:28;;;;;;;23.27;11.30;;;3.20;99.90;;;;;;5063604;28;20446;-68
2022/03/10 00:16:55;;;;;;;19.63;11.10;;;3.10;99.90;;;;;;5065997;28;20064;-68
2022/03/10 00:19:21;;;;;;;20.73;11.10;;;2.80;99.90;;;;;;5065171;28;20052;-67
2022/03/10 00:21:48;;;;;;;25.20;11.32;;;2.80;99.90;;;;;;5047611;28;20119;-67
2022/03/10 00:24:15;;;;;;;19.00;10.43;;;2.70;99.90;;;;;;5048490;28;20044;-67
2022/03/10 00:26:42;;;;;;;19.83;10.65;;;2.60;99.90;;;;;;5042991;28;20102;-68
2022/03/10 00:29:08;;;;;;;19.20;10.50;;;2.60;99.90;;;;;;5033423;28;20040;-68
2022/03/10 00:31:34;;;;;;;22.40;10.88;;;2.50;99.90;;;;;;5065832;28;20036;-72
2022/03/10 00:34:01;;;;;;;19.30;10.65;;;2.50;99.90;;;;;;5042694;28;20060;-70
2022/03/10 00:36:27;;;;;;;22.77;11.73;;;2.40;99.90;;;;;;5031414;28;20143;-68
2022/03/10 00:38:54;;;;;;;24.35;11.40;;;2.30;99.90;;;;;;5064730;28;20377;-67
2022/03/10 00:41:20;;;;;;;20.60;11.55;;;2.10;99.90;;;;;;5050601;28;20048;-68
2022/03/10 00:43:46;;;;;;;21.83;11.30;;;2.10;99.90;;;;;;5050781;28;20079;-67
2022/03/10 00:46:12;;;;;;;20.90;11.13;;;2.00;99.90;;;;;;5069140;28;20043;-68
2022/03/10 00:48:38;;;;;;;21.85;11.43;;;1.90;99.90;;;;;;5068782;28;20098;-68
2022/03/10 00:51:05;;;;;;;24.67;11.68;;;2.00;99.90;;;;;;5034291;28;20045;-69
2022/03/10 00:53:37;;;;;;;23.27;11.70;;;1.90;99.90;;;;;;5063737;28;20048;-67
2022/03/10 00:56:03;;;;;;;21.88;11.68;;;2.00;99.90;;;;;;5031210;28;20041;-67
2022/03/10 00:58:29;;;;;;;21.17;10.82;;;1.90;99.90;;;;;;5067132;28;20041;-67
2022/03/10 01:00:55;;;;;;;19.15;10.30;;;1.90;99.90;;;;;;5051437;28;20045;-67
2022/03/10 01:03:21;;;;;;;19.92;10.70;;;1.80;99.90;;;;;;5059582;28;20389;-68
2022/03/10 01:05:47;;;;;;;22.88;10.88;;;1.70;99.90;;;;;;5051735;28;20045;-69
2022/03/10 01:08:13;;;;;;;20.77;11.32;;;1.70;99.90;;;;;;5069371;28;20036;-68
2022/03/10 01:10:40;;;;;;;21.70;11.32;;;1.60;99.90;;;;;;5069764;28;20108;-67
2022/03/10 01:13:17;;;;;;;20.35;11.10;;;1.60;99.90;;;;;;5051625;28;20112;-67
2022/03/10 01:15:46;;;;;;;20.38;11.13;;;1.60;99.90;;;;;;5069334;28;20041;-68
2022/03/10 01:18:16;;;;;;;25.02;11.50;;;1.60;99.90;;;;;;5031534;28;20126;-67
2022/03/10 01:20:42;;;;;;;23.40;11.75;;;1.50;99.90;;;;;;5069076;28;20064;-67
2022/03/10 01:23:11;;;;;;;25.95;11.73;;;1.60;99.90;;;;;;5035565;28;20124;-67
2022/03/10 01:25:38;;;;;;;24.02;11.70;;;1.50;99.90;;;;;;5052094;28;20040;-69
2022/03/10 01:28:05;;;;;;;24.45;11.80;;;1.50;99.90;;;;;;5041241;28;20041;-69
2022/03/10 01:30:31;;;;;;;24.23;11.85;;;1.50;99.90;;;;;;5068540;28;20120;-68
2022/03/10 01:32:57;;;;;;;25.70;12.70;;;1.50;99.90;;;;;;5067099;28;20045;-68
2022/03/10 01:35:23;;;;;;;23.63;11.82;;;1.50;99.90;;;;;;5039548;28;20047;-68
2022/03/10 01:37:49;;;;;;;22.42;12.20;;;1.50;99.90;;;;;;5068385;28;20033;-67
2022/03/10 01:40:17;;;;;;;23.63;11.82;;;2.10;99.90;;;;;;5049155;28;20417;-67
2022/03/10 01:42:43;;;;;;;22.60;11.30;;;1.50;99.90;;;;;;5068683;28;20037;-67
2022/03/10 01:45:10;;;;;;;26.13;12.10;;;1.60;99.90;;;;;;5065722;28;20121;-67
2022/03/10 01:47:37;;;;;;;26.23;12.50;;;1.60;99.90;;;;;;5028748;28;20041;-70
2022/03/10 01:50:04;;;;;;;21.42;10.57;;;1.70;99.90;;;;;;5048626;28;20117;-68
2022/03/10 01:52:30;;;;;;;24.57;12.27;;;1.60;99.90;;;;;;5025362;28;1219235;-68
2022/03/10 01:54:57;;;;;;;22.48;11.57;;;1.60;99.90;;;;;;5069994;28;20052;-67
2022/03/10 01:57:24;;;;;;;23.58;11.10;;;1.60;99.90;;;;;;5036886;28;20045;-67
2022/03/10 01:59:51;;;;;;;24.08;11.50;;;1.70;99.90;;;;;;5068670;28;20116;-67
2022/03/10 02:02:17;;;;;;;23.67;11.50;;;1.70;99.90;;;;;;5034101;28;20470;-69
2022/03/10 02:04:43;;;;;;;22.90;11.57;;;1.70;99.90;;;;;;5069393;28;20051;-68
2022/03/10 02:10:16;;;;;;;23.23;10.85;;;1.70;99.90;;;;;;5052555;28;20389;-68
2022/03/10 02:12:40;;;;;;;19.52;10.93;;;1.70;99.90;;;;;;5061261;28;20038;-68
2022/03/10 02:17:58;;;;;;;;;;;1.70;99.90;;;;;;5070005;28;20048;-68
2022/03/10 02:20:24;;;;;;;22.80;11.07;;;1.90;99.90;;;;;;5050140;28;20655;-67
2022/03/10 02:22:50;;;;;;;22.55;11.05;;;1.60;99.90;;;;;;5041168;28;20055;-68
2022/03/10 02:25:19;;;;;;;25.90;11.35;;;1.60;99.90;;;;;;5033865;28;20045;-69
2022/03/10 02:27:50;;;;;;;23.02;10.73;;;1.60;99.90;;;;;;5032348;28;20037;-67
2022/03/10 02:30:17;;;;;;;22.60;10.93;;;1.60;99.90;;;;;;5050080;28;20079;-68
2022/03/10 02:32:43;;;;;;;21.85;10.73;;;2.00;99.90;;;;;;5068696;28;20049;-68
2022/03/10 02:35:08;;;;;;;21.35;10.25;;;1.70;99.90;;;;;;5046687;28;20050;-68
2022/03/10 02:37:34;;;;;;;21.65;10.25;;;1.70;99.90;;;;;;5025366;28;20068;-68
2022/03/10 02:40:00;;;;;;;22.65;11.07;;;1.70;99.90;;;;;;5047075;28;20063;-67
2022/03/10 02:42:26;;;;;;;23.67;11.40;;;1.60;99.90;;;;;;5034828;28;20064;-69
2022/03/10 02:44:52;;;;;;;23.73;11.10;;;1.60;99.90;;;;;;5068495;28;20385;-68
2022/03/10 02:47:18;;;;;;;20.95;10.55;;;1.60;99.90;;;;;;5048876;28;20053;-68
2022/03/10 02:49:44;;;;;;;20.80;10.65;;;1.60;99.90;;;;;;5048403;28;20073;-67
2022/03/10 02:52:10;;;;;;;22.08;10.73;;;1.60;99.90;;;;;;5071357;28;20064;-68
2022/03/10 02:54:36;;;;;;;21.55;10.85;;;1.60;99.90;;;;;;5016191;28;20485;-70
2022/03/10 02:57:02;;;;;;;21.63;10.13;;;1.50;99.90;;;;;;5051633;28;20056;-69
2022/03/10 02:59:28;;;;;;;19.08;10.05;;;1.50;99.90;;;;;;5039250;28;20131;-68
2022/03/10 03:01:58;;;;;;;24.88;11.82;;;1.50;99.90;;;;;;5046024;28;20483;-68
2022/03/10 03:04:24;;;;;;;23.42;11.00;;;1.40;99.90;;;;;;5067491;28;20056;-68
2022/03/10 03:06:51;;;;;;;23.77;10.85;;;1.20;99.90;;;;;;5051649;28;20052;-68
2022/03/10 03:09:17;;;;;;;20.13;10.35;;;1.20;99.90;;;;;;5071084;28;20072;-69
2022/03/10 03:11:43;;;;;;;22.65;10.60;;;1.00;99.90;;;;;;5048273;28;20448;-68
2022/03/10 03:14:09;;;;;;;18.52;10.27;;;0.80;99.90;;;;;;5049470;28;20717;-68
2022/03/10 03:16:35;;;;;;;22.83;10.93;;;0.70;99.90;;;;;;5058789;28;20068;-68
2022/03/10 03:19:01;;;;;;;21.40;11.27;;;0.70;99.90;;;;;;5032491;28;20489;-69
2022/03/10 03:21:27;;;;;;;22.23;10.43;;;0.60;99.90;;;;;;5066497;28;20051;-68
2022/03/10 03:23:53;;;;;;;21.38;11.50;;;0.60;99.90;;;;;;5033519;28;20056;-68
2022/03/10 03:26:19;;;;;;;25.23;11.27;;;0.60;99.90;;;;;;5065496;28;20041;-67
2022/03/10 03:28:45;;;;;;;22.58;10.88;;;0.70;99.90;;;;;;5065654;28;20120;-68
2022/03/10 03:31:11;;;;;;;23.42;11.00;;;0.70;99.90;;;;;;5047889;28;20068;-68
2022/03/10 03:33:37;;;;;;;21.33;10.50;;;0.70;99.90;;;;;;5031515;28;20049;-68
2022/03/10 03:36:04;;;;;;;24.75;11.88;;;0.60;99.90;;;;;;5029869;28;20488;-68
2022/03/10 03:38:30;;;;;;;23.02;12.20;;;0.60;99.90;;;;;;5067814;28;20075;-68
2022/03/10 03:40:55;;;;;;;21.42;10.82;;;0.60;99.90;;;;;;5043944;28;20150;-69
2022/03/10 03:43:21;;;;;;;25.65;12.68;;;0.60;99.90;;;;;;5066235;28;20037;-68
2022/03/10 03:45:47;;;;;;;23.23;11.95;;;0.60;99.90;;;;;;5037189;28;20060;-68
2022/03/10 03:48:13;;;;;;;23.52;11.90;;;0.60;99.90;;;;;;5061663;28;20041;-68
2022/03/10 03:50:39;;;;;;;26.55;12.00;;;0.70;99.90;;;;;;5048477;28;20052;-68
2022/03/10 03:53:05;;;;;;;25.73;12.30;;;0.70;99.90;;;;;;5047604;28;20060;-68
2022/03/10 03:55:31;;;;;;;26.08;11.82;;;0.70;99.90;;;;;;5066817;28;20053;-71
2022/03/10 03:57:57;;;;;;;26.65;11.75;;;0.70;99.90;;;;;;5050725;28;20052;-68
2022/03/10 04:00:23;;;;;;;21.08;10.85;;;0.70;99.90;;;;;;5064470;28;20376;-68
2022/03/10 04:02:49;;;;;;;24.05;12.32;;;0.70;99.90;;;;;;5064489;28;20419;-68
2022/03/10 04:05:15;;;;;;;19.00;10.68;;;0.80;99.90;;;;;;5031400;28;20124;-68
2022/03/10 04:07:41;;;;;;;24.50;12.00;;;0.80;99.90;;;;;;5070257;28;20053;-69
2022/03/10 04:10:08;;;;;;;25.00;11.75;;;0.80;99.90;;;;;;5029263;28;20052;-68
2022/03/10 04:12:34;;;;;;;19.60;10.40;;;0.80;99.90;;;;;;5047180;28;20041;-68
2022/03/10 04:15:01;;;;;;;22.15;10.93;;;0.70;99.90;;;;;;5049072;28;20120;-68
2022/03/10 04:17:27;;;;;;;22.85;11.13;;;0.70;99.90;;;;;;5048155;28;20044;-68
2022/03/10 04:19:53;;;;;;;27.58;11.77;;;0.70;99.90;;;;;;5065591;28;20485;-68
2022/03/10 04:22:19;;;;;;;25.17;11.30;;;0.70;99.90;;;;;;5045141;28;20084;-68
2022/03/10 04:24:45;;;;;;;22.35;10.63;;;0.70;99.90;;;;;;5048875;28;20041;-70
2022/03/10 04:27:11;;;;;;;24.30;11.63;;;0.70;99.90;;;;;;5048532;28;20354;-68
2022/03/10 04:29:37;;;;;;;21.95;11.13;;;0.90;99.90;;;;;;5066030;28;20049;-68
2022/03/10 04:32:04;;;;;;;27.52;11.32;;;0.90;99.90;;;;;;5027695;28;20462;-68
2022/03/10 04:34:30;;;;;;;24.23;12.02;;;0.90;99.90;;;;;;5041564;28;20041;-67
2022/03/10 04:36:56;;;;;;;23.67;11.85;;;0.90;99.90;;;;;;5064842;28;20473;-68
2022/03/10 04:39:22;;;;;;;23.00;11.52;;;0.80;99.90;;;;;;5042981;28;20051;-67
2022/03/10 04:41:48;;;;;;;24.40;11.70;;;0.70;99.90;;;;;;5046523;28;20124;-68
2022/03/10 04:44:14;;;;;;;24.55;11.98;;;0.70;99.90;;;;;;5047654;28;20123;-69
2022/03/10 04:46:39;;;;;;;22.15;11.45;;;0.70;99.90;;;;;;5029869;28;20124;-68
2022/03/10 04:49:05;;;;;;;23.92;11.52;;;1.30;99.90;;;;;;5045637;28;20393;-69
2022/03/10 04:51:31;;;;;;;21.63;11.75;;;0.80;99.90;;;;;;5031319;28;20040;-68
2022/03/10 04:53:57;;;;;;;23.67;10.88;;;0.80;99.90;;;;;;5046645;28;20049;-68
2022/03/10 04:56:23;;;;;;;25.38;11.82;;;0.80;99.90;;;;;;5063400;28;20535;-68
2022/03/10 04:58:49;;;;;;;25.20;11.32;;;0.80;99.90;;;;;;5032767;28;20059;-67
2022/03/10 05:01:15;;;;;;;24.05;11.73;;;0.80;99.90;;;;;;5045844;28;20043;-68
2022/03/10 05:03:41;;;;;;;24.65;11.25;;;0.80;99.90;;;;;;5063490;28;20489;-68
2022/03/10 05:06:07;;;;;;;23.80;11.55;;;1.30;99.90;;;;;;5046975;28;20036;-69
2022/03/10 05:08:33;;;;;;;24.73;10.75;;;1.00;99.90;;;;;;5049015;28;20147;-68
2022/03/10 05:10:59;;;;;;;22.15;11.60;;;1.50;99.90;;;;;;5048242;28;20531;-68
2022/03/10 05:13:25;;;;;;;21.15;11.23;;;1.00;99.90;;;;;;5030194;28;20068;-67
2022/03/10 05:15:51;;;;;;;21.33;11.57;;;2.00;99.90;;;;;;5053875;28;20058;-70
2022/03/10 05:18:17;;;;;;;23.83;11.18;;;1.10;99.90;;;;;;5033366;28;20048;-68
2022/03/10 05:20:45;;;;;;;24.05;12.02;;;1.10;99.90;;;;;;5030603;28;20037;-68
2022/03/10 05:23:11;;;;;;;21.58;10.43;;;1.10;99.90;;;;;;5061591;28;20052;-68
2022/03/10 05:25:39;;;;;;;23.05;10.95;;;1.10;99.90;;;;;;5031472;28;20033;-68
2022/03/10 05:28:11;;;;;;;21.33;10.75;;;1.10;99.90;;;;;;5053063;28;20049;-68
2022/03/10 05:30:37;;;;;;;25.85;11.00;;;1.20;99.90;;;;;;5068092;28;20476;-68
2022/03/10 05:33:03;;;;;;;21.17;10.68;;;1.10;99.90;;;;;;5032596;28;20075;-67
2022/03/10 05:35:29;;;;;;;22.58;11.60;;;1.10;99.90;;;;;;5063835;28;20036;-67
2022/03/10 05:37:55;;;;;;;24.83;11.60;;;1.10;99.90;;;;;;5067470;28;20102;-67
2022/03/10 05:40:22;;;;;;;23.52;11.73;;;1.10;99.90;;;;;;5068289;28;20076;-68
2022/03/10 05:42:50;;;;;;;21.70;11.20;;;1.10;99.90;;;;;;5050871;28;20146;-68
2022/03/10 05:45:22;;;;;;;24.65;11.43;;;1.10;99.90;;;;;;5046841;28;20083;-67
2022/03/10 05:47:52;;;;;;;25.35;11.75;;;1.10;99.90;;;;;;5050284;28;20424;-69
2022/03/10 05:50:18;;;;;;;24.55;11.57;;;1.00;99.90;;;;;;5049492;28;20115;-69
2022/03/10 05:52:45;;;;;;;27.92;11.40;;;1.00;99.90;;;;;;5069937;28;20053;-68
2022/03/10 05:55:13;;;;;;;25.75;11.98;;;1.00;99.90;;;;;;5046177;28;20049;-69
2022/03/10 05:57:39;;;;;;;21.63;11.00;;;1.00;99.90;;;;;;5052786;28;20040;-67
2022/03/10 06:00:06;;;;;;;24.70;11.82;;;1.10;99.90;;;;;;5034469;28;20044;-68
2022/03/10 06:02:32;;;;;;;21.95;11.27;;;1.10;99.90;;;;;;5069483;28;20120;-68
2022/03/10 06:05:02;;;;;;;25.55;12.27;;;1.10;99.90;;;;;;5033608;28;20144;-68
2022/03/10 06:07:29;;;;;;;23.55;11.25;;;1.10;99.90;;;;;;5016426;28;20045;-69
2022/03/10 06:09:55;;;;;;;26.92;12.23;;;1.20;99.90;;;;;;5064390;28;20087;-67
2022/03/10 06:12:23;;;;;;;22.63;11.70;;;1.10;99.90;;;;;;5034916;28;20106;-68
2022/03/10 06:14:53;;;;;;;23.10;11.93;;;1.90;99.90;;;;;;5065957;28;20033;-68
2022/03/10 06:17:20;;;;;;;23.73;11.50;;;1.20;99.90;;;;;;5050013;28;20052;-68
2022/03/10 06:19:46;;;;;;;28.75;12.48;;;1.10;99.90;;;;;;5068584;28;20112;-67
2022/03/10 06:22:16;;;;;;;25.10;12.70;;;1.20;99.90;;;;;;5047746;28;20667;-68
2022/03/10 06:24:42;;;;;;;25.25;12.25;;;1.20;99.90;;;;;;5048159;28;20045;-69
2022/03/10 06:27:07;;;;;;;24.42;12.43;;;1.30;99.90;;;;;;5066185;28;20037;-68
2022/03/10 06:29:33;;;;;;;22.75;11.90;;;1.30;99.90;;;;;;5052370;28;20083;-68
2022/03/10 06:31:59;;;;;;;26.48;12.65;;;1.40;99.90;;;;;;5067350;28;20040;-68
2022/03/10 06:34:25;;;;;;;26.33;11.88;;;1.50;99.90;;;;;;5035080;28;20095;-68
2022/03/10 06:36:51;;;;;;;26.25;12.15;;;1.50;99.90;;;;;;5064847;28;20053;-67
2022/03/10 06:39:17;;;;;;;26.67;12.88;;;1.60;99.90;;;;;;5049582;28;20044;-68
2022/03/10 06:41:43;;;;;;;24.67;12.30;;;1.70;99.90;;;;;;5031385;28;20041;-69
2022/03/10 06:44:08;;;;;;;24.58;13.20;;;1.70;99.90;;;;;;5068621;28;20469;-68
2022/03/10 06:46:34;;;;;;;25.27;12.70;;;1.80;99.90;;;;;;5032992;28;20052;-69
2022/03/10 06:49:00;;;;;;;25.95;13.18;;;1.80;99.90;;;;;;5035204;28;20076;-68
2022/03/10 06:51:26;;;;;;;25.95;13.05;;;1.90;99.90;;;;;;5034797;28;20072;-68
2022/03/10 06:53:54;;;;;;;28.15;12.88;;;1.90;99.90;;;;;;5025962;28;20041;-68
2022/03/10 06:56:20;;;;;;;27.40;13.40;;;2.00;99.90;;;;;;5033426;28;20505;-68
2022/03/10 06:58:45;;;;;;;26.35;12.80;;;2.10;99.90;;;;;;5048237;28;20045;-68
2022/03/10 07:01:11;;;;;;;25.35;14.13;;;2.20;99.90;;;;;;5048451;28;20033;-70
2022/03/10 07:03:37;;;;;;;24.95;12.70;;;2.80;99.90;;;;;;5014859;28;20041;-68
2022/03/10 07:06:03;;;;;;;25.25;13.02;;;2.40;99.90;;;;;;5048202;28;20037;-68
2022/03/10 07:08:29;;;;;;;24.90;12.25;;;2.50;99.90;;;;;;5050673;28;20048;-69
2022/03/10 07:10:55;;;;;;;28.30;13.30;;;2.50;99.90;;;;;;5066252;28;20044;-68
2022/03/10 07:13:21;;;;;;;28.30;13.25;;;2.60;99.90;;;;;;5034014;28;20139;-68
2022/03/10 07:15:47;;;;;;;26.27;12.35;;;2.80;99.90;;;;;;5047303;28;20136;-67
2022/03/10 07:18:13;;;;;;;27.13;13.18;;;2.90;99.90;;;;;;5064508;28;20037;-68
2022/03/10 07:20:38;;;;;;;25.70;13.27;;;3.00;99.90;;;;;;5049713;28;20060;-68
2022/03/10 07:23:04;;;;;;;26.05;13.85;;;3.10;99.90;;;;;;5064714;28;20045;-70
2022/03/10 07:25:30;;;;;;;25.08;12.95;;;3.90;99.90;;;;;;5066763;28;20379;-68
2022/03/10 07:27:57;;;;;;;27.02;12.73;;;3.40;99.90;;;;;;5013651;28;20132;-67
2022/03/10 07:30:23;;;;;;;23.58;12.43;;;3.60;99.90;;;;;;5044380;28;20120;-67
2022/03/10 07:32:49;;;;;;;21.58;11.88;;;3.70;99.90;;;;;;5051717;28;20378;-68
2022/03/10 07:35:15;;;;;;;22.67;12.45;;;3.80;99.90;;;;;;5050980;28;20048;-68
2022/03/10 07:37:41;;;;;;;23.83;13.35;;;3.90;99.90;;;;;;5047200;28;20070;-67
2022/03/10 07:40:08;;;;;;;25.55;12.77;;;4.00;99.90;;;;;;5032292;28;20048;-71
2022/03/10 07:42:33;;;;;;;24.23;12.10;;;4.20;99.90;;;;;;5040760;28;20040;-68
2022/03/10 07:44:59;;;;;;;22.42;12.90;;;4.30;99.90;;;;;;5034404;28;20043;-67
2022/03/10 07:47:25;;;;;;;26.98;13.10;;;4.40;99.90;;;;;;5049362;28;20033;-68
2022/03/10 07:49:51;;;;;;;25.88;13.32;;;4.60;99.90;;;;;;5067251;28;20053;-68
2022/03/10 07:52:17;;;;;;;24.27;13.32;;;4.70;99.90;;;;;;5034230;28;20473;-67
2022/03/10 07:54:42;;;;;;;24.88;13.43;;;4.80;99.90;;;;;;5050626;28;20437;-68
2022/03/10 07:57:08;;;;;;;24.95;13.05;;;4.90;99.90;;;;;;5050243;28;20052;-68
2022/03/10 07:59:35;;;;;;;28.77;13.13;;;5.00;99.90;;;;;;5050670;28;20131;-70
2022/03/10 08:02:01;;;;;;;25.67;13.77;;;5.10;99.90;;;;;;5048569;28;20484;-68
2022/03/10 08:04:27;;;;;;;25.90;13.70;;;5.10;99.90;;;;;;5044138;28;20045;-68
2022/03/10 08:06:53;;;;;;;23.02;12.90;;;5.20;99.90;;;;;;5036033;28;20045;-69
2022/03/10 08:09:20;;;;;;;24.40;13.27;;;5.30;99.90;;;;;;5041683;28;20037;-68
2022/03/10 08:11:46;;;;;;;30.52;14.05;;;5.40;99.90;;;;;;5010348;28;20061;-67
2022/03/10 08:14:12;;;;;;;28.05;14.18;;;5.50;99.90;;;;;;5065252;28;20098;-67
2022/03/10 08:16:38;;;;;;;29.75;13.55;;;5.60;99.90;;;;;;5047908;28;20044;-67
2022/03/10 08:19:03;;;;;;;25.08;13.45;;;5.70;99.90;;;;;;5059040;28;20036;-68
2022/03/10 08:21:30;;;;;;;25.15;13.63;;;5.80;99.90;;;;;;5067368;28;20508;-68
2022/03/10 08:23:56;;;;;;;25.10;13.25;;;5.90;99.90;;;;;;5050060;28;20041;-68
2022/03/10 08:26:22;;;;;;;22.33;12.75;;;6.10;99.90;;;;;;5040995;28;20095;-68
2022/03/10 08:28:51;;;;;;;23.73;13.32;;;6.20;99.90;;;;;;5050673;28;20044;-68
2022/03/10 08:31:18;;;;;;;27.48;13.32;;;6.20;99.90;;;;;;5050180;28;20045;-67
2022/03/10 08:33:44;;;;;;;24.27;13.40;;;6.40;99.90;;;;;;5067184;28;20048;-69
2022/03/10 08:36:10;;;;;;;23.13;12.43;;;6.50;99.90;;;;;;5032366;28;20048;-68
2022/03/10 08:38:36;;;;;;;24.52;13.63;;;6.70;99.90;;;;;;5034327;28;20044;-67
2022/03/10 08:41:02;;;;;;;21.98;13.25;;;6.80;99.90;;;;;;5030294;28;20382;-68
2022/03/10 08:43:31;;;;;;;24.85;13.20;;;6.90;99.90;;;;;;5050511;28;20072;-68
2022/03/10 08:45:58;;;;;;;22.73;13.35;;;7.10;99.90;;;;;;5048657;28;20040;-70
2022/03/10 08:48:24;;;;;;;23.15;12.35;;;7.20;99.90;;;;;;5067062;28;20048;-68
2022/03/10 08:50:50;;;;;;;24.02;12.93;;;7.40;99.90;;;;;;5043417;28;20477;-67
2022/03/10 08:53:17;;;;;;;30.75;14.30;;;7.50;99.90;;;;;;5047778;28;20053;-70
2022/03/10 08:55:43;;;;;;;24.60;13.23;;;7.70;99.90;;;;;;5058003;28;20116;-67
2022/03/10 08:58:10;;;;;;;24.42;13.02;;;7.90;99.90;;;;;;5066229;28;20381;-68
2022/03/10 09:00:35;;;;;;;21.20;12.88;;;8.00;99.90;;;;;;5026235;28;20041;-68
2022/03/10 09:03:01;;;;;;;21.85;13.02;;;8.10;99.10;;;;;;5053700;28;20033;-68
2022/03/10 09:05:27;;;;;;;25.60;14.02;;;8.20;99.90;;;;;;5036724;28;20043;-67
2022/03/10 09:07:53;;;;;;;22.83;13.20;;;8.30;99.90;;;;;;5054315;28;20041;-68
2022/03/10 09:10:19;;;;;;;24.02;12.70;;;8.40;98.00;;;;;;5035891;28;20045;-69
2022/03/10 09:12:45;;;;;;;21.38;12.95;;;8.50;93.70;;;;;;5070709;28;20064;-67
2022/03/10 09:15:11;;;;;;;20.75;12.95;;;8.60;96.30;;;;;;5054288;28;20045;-68
2022/03/10 09:17:37;;;;;;;25.40;13.25;;;8.70;96.80;;;;;;5047793;28;20041;-68
2022/03/10 09:20:07;;;;;;;23.08;13.95;;;8.80;93.20;;;;;;5073783;28;20384;-68
2022/03/10 09:22:33;;;;;;;28.35;14.02;;;8.90;90.80;;;;;;5048298;28;20037;-68
2022/03/10 09:25:05;;;;;;;24.33;13.25;;;9.10;91.80;;;;;;5068195;28;20044;-67
2022/03/10 09:27:31;;;;;;;20.63;13.18;;;9.20;90.50;;;;;;5059315;28;20041;-67
2022/03/10 09:29:57;;;;;;;25.35;13.02;;;9.30;87.70;;;;;;5032947;28;20048;-68
2022/03/10 09:32:24;;;;;;;26.00;13.20;;;9.50;89.60;;;;;;5045505;28;20048;-68
2022/03/10 09:34:50;;;;;;;23.95;13.18;;;9.70;90.40;;;;;;5050416;28;20087;-68
2022/03/10 09:37:16;;;;;;;23.17;13.75;;;9.80;86.70;;;;;;5053047;28;20037;-67
2022/03/10 09:39:41;;;;;;;21.33;12.73;;;9.90;87.30;;;;;;5070232;28;20037;-68
2022/03/10 09:42:09;;;;;;;22.42;12.82;;;10.00;80.30;;;;;;5053389;28;20037;-67
2022/03/10 09:44:37;;;;;;;26.20;13.27;;;10.20;83.10;;;;;;5069192;28;20495;-67
2022/03/10 09:47:03;;;;;;;20.15;12.20;;;10.30;79.90;;;;;;5061818;28;20041;-68
2022/03/10 09:49:33;;;;;;;22.23;12.90;;;10.30;77.00;;;;;;5034488;28;20045;-67
2022/03/10 09:51:59;;;;;;;20.33;12.30;;;10.40;75.60;;;;;;5047611;28;20048;-69
2022/03/10 09:54:26;;;;;;;21.90;12.82;;;10.60;78.60;;;;;;5020981;28;20053;-74
2022/03/10 09:56:54;;;;;;;19.95;12.55;;;10.80;76.00;;;;;;5069448;28;20072;-69
2022/03/10 09:59:22;;;;;;;20.70;12.68;;;11.00;77.70;;;;;;5037237;28;20073;-70
2022/03/10 10:01:48;;;;;;;25.70;13.88;;;11.10;75.70;;;;;;5051401;28;20040;-69
2022/03/10 10:04:14;;;;;;;20.25;12.98;;;11.20;75.80;;;;;;5049985;28;20094;-69
2022/03/10 10:07:04;;;;;;;20.52;12.82;;;11.30;72.40;;;;;;5036446;28;20044;-70
2022/03/10 10:09:54;;;;;;;19.10;12.07;;;11.40;69.20;;;;;;5053476;28;20037;-70
2022/03/10 10:12:34;;;;;;;20.70;12.73;;;11.50;66.40;;;;;;5038797;28;20473;-69
2022/03/10 10:15:08;;;;;;;19.55;12.32;;;11.60;68.60;;;;;;5048845;28;20374;-70
2022/03/10 10:17:34;;;;;;;21.98;12.80;;;11.70;68.30;;;;;;5073252;28;20063;-70
2022/03/10 10:20:01;;;;;;;18.92;12.93;;;11.90;71.10;;;;;;5072798;28;20075;-72
2022/03/10 10:22:28;;;;;;;20.08;12.13;;;11.90;68.50;;;;;;5072963;28;20443;-69
2022/03/10 10:24:57;;;;;;;21.63;12.10;;;12.10;67.50;;;;;;5057754;28;20770;-68
2022/03/10 10:27:25;;;;;;;19.27;12.25;;;12.20;67.10;;;;;;5069499;28;20041;-69
2022/03/10 10:29:53;;;;;;;17.23;11.70;;;12.30;68.00;;;;;;5066865;28;20052;-70
2022/03/10 10:32:31;;;;;;;19.08;12.20;;;12.30;64.40;;;;;;5048051;28;20044;-69
2022/03/10 10:35:09;;;;;;;19.85;11.52;;;12.40;66.90;;;;;;5040268;28;20102;-68
2022/03/10 10:37:39;;;;;;;19.95;12.30;;;12.60;64.20;;;;;;5069267;28;20045;-69
2022/03/10 10:40:07;;;;;;;18.23;12.10;;;12.70;64.10;;;;;;5034839;28;20047;-70
2022/03/10 10:42:35;;;;;;;17.85;11.90;;;12.90;64.80;;;;;;5052874;28;20045;-72
2022/03/10 10:45:21;;;;;;;19.17;11.70;;;12.80;63.10;;;;;;5074383;28;20427;-69
2022/03/10 10:48:03;;;;;;;19.27;11.75;;;13.00;63.60;;;;;;5055762;28;20044;-69
2022/03/10 10:50:35;;;;;;;19.85;11.63;;;13.10;60.90;;;;;;5055481;28;20508;-68
2022/03/10 10:53:01;;;;;;;17.73;11.82;;;13.10;60.50;;;;;;5037808;28;20628;-70
2022/03/10 10:55:31;;;;;;;20.42;11.45;;;13.30;64.30;;;;;;5067851;28;20056;-69
2022/03/10 10:58:11;;;;;;;19.45;11.57;;;13.40;60.80;;;;;;5052430;28;20037;-70
2022/03/10 11:00:49;;;;;;;17.65;11.73;;;13.50;60.90;;;;;;5035152;28;20394;-69
2022/03/10 11:03:26;;;;;;;18.27;11.82;;;13.80;61.90;;;;;;5068762;28;20045;-68
2022/03/10 11:05:54;;;;;;;17.17;11.98;;;13.60;57.70;;;;;;5051581;28;20075;-69
2022/03/10 11:08:26;;;;;;;17.52;11.63;;;13.60;58.20;;;;;;5052284;28;20040;-69
2022/03/10 11:10:53;;;;;;;18.08;11.82;;;13.70;58.60;;;;;;5067081;28;20083;-69
2022/03/10 11:13:20;;;;;;;20.40;11.32;;;13.80;59.90;;;;;;5044080;28;20050;-69
2022/03/10 11:15:48;;;;;;;18.65;11.57;;;13.90;59.80;;;;;;5053765;28;20037;-68
2022/03/10 11:18:14;;;;;;;19.38;11.75;;;13.80;58.60;;;;;;5044084;28;20393;-69
2022/03/10 11:20:45;;;;;;;16.67;11.05;;;13.90;55.20;;;;;;5049146;28;20482;-69
2022/03/10 11:23:29;;;;;;;17.88;11.48;;;14.10;56.90;;;;;;5028740;28;20120;-69
2022/03/10 11:25:59;;;;;;;18.42;12.30;;;14.10;56.20;;;;;;5050070;28;20041;-69
2022/03/10 11:28:31;;;;;;;20.92;11.65;;;14.10;56.90;;;;;;5047388;28;20162;-68
2022/03/10 11:31:00;;;;;;;18.27;11.38;;;14.30;52.90;;;;;;5028225;28;20075;-69
2022/03/10 11:33:34;;;;;;;19.88;11.43;;;14.10;52.70;;;;;;5031150;28;20068;-68
2022/03/10 11:36:00;;;;;;;17.33;12.05;;;14.20;52.80;;;;;;5033244;28;20057;-69
2022/03/10 11:38:51;;;;;;;17.13;11.80;;;14.10;53.70;;;;;;5027760;28;20049;-69
2022/03/10 11:41:18;;;;;;;18.95;12.02;;;14.30;52.10;;;;;;5043989;28;20037;-69
2022/03/10 11:44:04;;;;;;;16.33;11.20;;;14.50;54.50;;;;;;5025779;28;20381;-68
2022/03/10 11:46:35;;;;;;;19.65;12.35;;;14.60;52.70;;;;;;5024344;28;20048;-68
2022/03/10 11:49:11;;;;;;;19.38;12.10;;;14.60;54.00;;;;;;5035690;28;20052;-70
2022/03/10 11:51:52;;;;;;;18.08;11.93;;;14.80;51.50;;;;;;5048319;28;20041;-69
2022/03/10 11:54:27;;;;;;;21.08;12.85;;;14.90;51.90;;;;;;5050155;28;20104;-69
2022/03/10 11:56:54;;;;;;;20.42;12.60;;;15.10;53.60;;;;;;5052037;28;20072;-68
2022/03/10 11:59:24;;;;;;;20.48;14.82;;;15.20;53.90;;;;;;5067575;28;20080;-69
2022/03/10 12:01:51;;;;;;;20.58;12.35;;;15.30;53.00;;;;;;5050293;28;20032;-69
2022/03/10 12:04:20;;;;;;;19.50;12.32;;;15.40;52.30;;;;;;5049492;28;20080;-70
2022/03/10 12:06:58;;;;;;;19.15;12.93;;;15.60;50.50;;;;;;5064253;28;20068;-69
2022/03/10 12:09:41;;;;;;;21.83;13.55;;;16.00;51.90;;;;;;5026267;28;20049;-69
2022/03/10 12:12:25;;;;;;;21.88;12.50;;;16.10;49.10;;;;;;5065636;28;20111;-69
2022/03/10 12:14:56;;;;;;;21.00;12.63;;;16.20;48.70;;;;;;5032943;28;20556;-70
2022/03/10 12:17:57;;;;;;;20.15;12.68;;;16.40;50.40;;;;;;5048726;28;20396;-70
2022/03/10 12:20:39;;;;;;;18.98;12.55;;;16.40;47.00;;;;;;4970098;28;20033;-71
2022/03/10 12:23:15;;;;;;;19.23;13.13;;;17.00;52.40;;;;;;5039353;28;20501;-69
2022/03/10 12:25:49;;;;;;;18.17;12.90;;;17.10;49.70;;;;;;5066470;28;20049;-73
2022/03/10 12:28:31;;;;;;;21.20;13.27;;;17.10;49.10;;;;;;5029608;28;20049;-72
2022/03/10 12:31:19;;;;;;;20.48;13.32;;;17.40;47.90;;;;;;5028934;28;20030;-71
2022/03/10 12:33:53;;;;;;;19.70;13.15;;;17.40;46.90;;;;;;5067040;28;20311;-70
2022/03/10 12:36:26;;;;;;;22.42;13.27;;;17.50;49.30;;;;;;5036235;28;20048;-71
2022/03/10 12:38:52;;;;;;;18.10;13.38;;;18.10;49.50;;;;;;5055024;28;20052;-72
2022/03/10 12:41:18;;;;;;;22.35;13.13;;;18.30;47.60;;;;;;5053859;28;20044;-70
2022/03/10 12:43:52;;;;;;;17.58;13.05;;;18.50;50.90;;;;;;5062986;28;20075;-70
2022/03/10 12:46:18;;;;;;;18.98;12.98;;;18.80;50.10;;;;;;5066102;28;20041;-70